Historyczne dane pomiarowe

Dodano dane terminowe – wersja testowa.

Dane z okresu 1951-2018

Wersja bazy: 1.27 [2018-11-28, lista zmian], aktualizacja planowana na 2018-12-07

Dane meteo z obszaru Polski uzyskane na podstawie danych udostępnionych przez Instytut Meteorologii i Gospodarki Wodnej – Państwowy Instytut Badawczy.

 

Wybierz Datę:    

       

TemperaturaWilgotnośćWiatrCiśnienieOpadyŚniegCzas trwania zjawisk
 Stacja t tx tn tng RH VA  wxwx mslp ppp RRR   cm mm wxwxwxwxwxwxwx
1959-11-08 4.6 5.5 3.9 3.8 89.8- 8.0 3.0---- 0.7------------
1959-11-09 5.1 5.6 3.4 3.1 93.8- 8.0 3.3---- 1.1------------
1959-11-10 5.4 6.8 4.5 4.5 89.0- 8.0 2.7---- 8.7------------
1959-11-11 5.4 6.4 3.6 3.2 90.5- 8.0 2.0---- 0.1------------
1959-11-12 4.1 5.6 3.0 3.9 90.3- 8.0 2.3---- 4.9------------
1959-11-13 4.2 4.7 2.4 3.1 86.5- 8.0 4.7---- 0.0------------
1959-11-14 5.1 7.2 3.7 3.6 81.8- 7.7 5.7---- 0.0------------
1959-11-15 1.3 4.4 0.0 -1.1 64.8- 3.7 7.0---- 0.0------------
1959-11-16 -2.4 0.1 -3.1 -4.5 75.5- 5.7 6.7---- 0.2------------
1959-11-17 -2.4 -2.1 -2.8 -3.3 89.8- 8.0 3.7---- 0.8------------
1959-11-18 -0.1 0.8 -2.2 -3.1 88.0- 8.0 6.3---- 0.2-- 1---------
1959-11-19 1.1 1.2 -0.2 -0.6 89.3- 8.0 5.7---- 6.8------------
1959-11-20 1.5 2.4 0.9 0.4 90.8- 8.0 2.0---- 0.1------------
1959-11-21 -1.5 1.3 -3.0 -0.3 84.5- 5.3 4.0---- 0.0------------
1959-11-22 -3.1 1.4 -5.5 -7.2 72.3- 3.0 2.7---- 0.0------------
1959-11-23 -2.0 -0.3 -7.2-10.3 88.3- 6.7 3.0---- 0.0------------
1959-11-24 1.3 2.1 -0.5 -1.1 82.5- 7.7 3.3---- 0.0------------
1959-11-25 -0.4 4.3 -3.3 -2.5 77.0- 3.3 1.0---- 0.0------------
1959-11-26 -2.6 0.0 -7.5-10.4 90.8- 5.0 2.0---- 0.0------------
1959-11-27 0.4 1.4 -2.7 -2.8 80.5- 8.0 7.0---- 0.0------------
1959-11-28 1.6 3.2 -2.0 -3.3 79.5- 6.7 6.0---- 0.0------------
1959-11-29 2.1 3.3 0.5 -0.6 91.0- 8.0 2.7---- 1.1------------
1959-11-30 2.5 3.8 0.6 0.1 93.3- 8.0 2.0---- 0.4------------
1959-12-01 1.8 2.9 0.0 -0.2 92.0- 8.0 5.0---- 0.4------------
1959-12-02 2.2 2.8 1.2 0.8 92.8- 8.0 3.3---- 12.3------------
1959-12-03 3.6 4.8 2.5 1.8 95.0- 8.0 0.3---- 0.2------------
1959-12-04 -0.5 3.2 -1.9 1.2 90.5- 8.0 7.0---- 1.9------------
1959-12-05 -9.2 -1.8-12.3 -5.6 65.3- 6.3 8.7---- 0.2------------
1959-12-06-15.5-11.4-17.5-17.1 61.5- 4.0 5.3---- 0.0------------
1959-12-07-16.7-14.2-19.9-20.6 59.0- 3.3 7.3---- 0.0------------
106.4 ms

 

Źródłem pochodzenia danych jest Instytut Meteorologii i Gospodarki Wodnej – Państwowy Instytut Badawczy. Dane Instytutu Meteorologii i Gospodarki Wodnej – Państwowego Instytutu Badawczego zostały przetworzone.

Dane źródłowe można odnaleźć na stronie https://dane.imgw.pl